createdAt,value
2019-01-29T00:02:10.206Z,17.67
2019-01-29T00:04:54.183Z,15.60
2019-01-29T00:07:40.420Z,12.73
2019-01-29T00:10:20.611Z,15.33
2019-01-29T00:13:06.827Z,15.90
2019-01-29T00:15:46.440Z,14.53
2019-01-29T00:18:12.946Z,13.63
2019-01-29T00:20:59.223Z,11.87
2019-01-29T00:23:45.440Z,17.03
2019-01-29T00:26:26.002Z,15.10
2019-01-29T00:28:53.731Z,14.20
2019-01-29T00:31:39.992Z,12.17
2019-01-29T00:34:06.583Z,13.83
2019-01-29T00:36:32.976Z,10.60
2019-01-29T00:38:59.456Z,12.40
2019-01-29T00:41:45.746Z,13.07
2019-01-29T00:44:31.979Z,12.93
2019-01-29T00:47:11.780Z,10.33
2019-01-29T00:49:58.019Z,12.47
2019-01-29T00:52:42.187Z,10.37
2019-01-29T00:55:26.430Z,11.17
2019-01-29T00:58:06.730Z,8.83
2019-01-29T01:00:52.945Z,13.47
2019-01-29T01:03:32.868Z,11.93
2019-01-29T01:06:19.136Z,12.53
2019-01-29T01:08:58.800Z,10.70
2019-01-29T01:11:45.001Z,11.37
2019-01-29T01:14:24.983Z,11.60
2019-01-29T01:17:11.328Z,13.27
2019-01-29T01:19:51.220Z,9.47
2019-01-29T01:22:17.778Z,10.63
2019-01-29T01:25:04.814Z,10.47
2019-01-29T01:27:31.374Z,9.67
2019-01-29T01:30:17.986Z,8.90
2019-01-29T01:33:06.698Z,9.07
2019-01-29T01:35:46.903Z,11.30
2019-01-29T01:38:33.162Z,9.73
2019-01-29T01:41:13.097Z,9.37
2019-01-29T01:43:39.574Z,11.17
2019-01-29T01:46:06.064Z,10.03
2019-01-29T01:48:52.675Z,9.27
2019-01-29T01:51:32.397Z,8.57
2019-01-29T01:53:58.839Z,8.40
2019-01-29T01:56:45.040Z,9.87
2019-01-29T01:59:24.616Z,8.27
2019-01-29T02:02:10.949Z,8.70
2019-01-29T02:04:50.818Z,8.03
2019-01-29T02:07:37.041Z,12.13
2019-01-29T02:10:18.542Z,6.63
2019-01-29T02:13:04.788Z,6.50
2019-01-29T02:15:44.626Z,7.70
2019-01-29T02:18:11.244Z,7.00
2019-01-29T02:20:57.594Z,7.37
2019-01-29T02:23:24.225Z,8.50
2019-01-29T02:25:50.765Z,8.47
2019-01-29T02:28:36.931Z,8.03
2019-01-29T02:31:16.960Z,6.93
2019-01-29T02:34:18.695Z,10.10
2019-01-29T02:36:58.385Z,8.77
2019-01-29T02:39:44.740Z,7.27
2019-01-29T02:42:11.230Z,12.03
2019-01-29T02:44:57.506Z,6.73
2019-01-29T02:47:43.765Z,7.30
2019-01-29T02:50:23.932Z,5.93
2019-01-29T02:53:04.213Z,9.43
2019-01-29T02:55:30.703Z,8.03
2019-01-29T02:57:57.214Z,7.93
2019-01-29T03:00:43.564Z,11.67
2019-01-29T03:03:29.812Z,6.27
2019-01-29T03:06:09.259Z,8.03
2019-01-29T03:08:55.527Z,8.57
2019-01-29T03:11:44.122Z,8.23
2019-01-29T03:14:30.627Z,8.47
2019-01-29T03:17:16.843Z,8.30
2019-01-29T03:19:43.452Z,8.43
2019-01-29T03:22:09.922Z,9.73
2019-01-29T03:24:36.380Z,8.80
2019-01-29T03:27:22.601Z,6.83
2019-01-29T03:30:04.803Z,7.00
2019-01-29T03:32:51.195Z,9.27
2019-01-29T03:35:31.530Z,10.13
2019-01-29T03:38:17.917Z,8.90
2019-01-29T03:40:57.697Z,8.40
2019-01-29T03:43:37.589Z,7.40
2019-01-29T03:46:23.992Z,8.80
2019-01-29T03:49:03.831Z,11.70
2019-01-29T03:51:30.417Z,7.87
2019-01-29T03:53:57.018Z,7.93
2019-01-29T03:56:43.320Z,9.73
2019-01-29T03:59:29.578Z,7.53
2019-01-29T04:02:09.291Z,7.73
2019-01-29T04:04:35.889Z,8.00
2019-01-29T04:07:22.116Z,9.00
2019-01-29T04:10:30.025Z,11.13
2019-01-29T04:12:56.394Z,9.83
2019-01-29T04:15:42.744Z,8.80
2019-01-29T04:18:22.896Z,9.27
2019-01-29T04:21:09.132Z,11.30
2019-01-29T04:23:48.625Z,11.30
2019-01-29T04:26:34.873Z,8.27
2019-01-29T04:29:21.269Z,7.60
2019-01-29T04:32:01.712Z,6.50
2019-01-29T04:34:47.989Z,7.83
2019-01-29T04:37:14.524Z,12.67
2019-01-29T04:39:40.907Z,9.27
2019-01-29T04:42:07.489Z,6.63
2019-01-29T04:44:33.873Z,8.77
2019-01-29T04:47:00.407Z,8.47
2019-01-29T04:49:26.867Z,8.73
2019-01-29T04:51:53.355Z,8.40
2019-01-29T04:54:19.829Z,10.70
2019-01-29T04:56:46.303Z,10.53
2019-01-29T04:59:12.903Z,8.07
2019-01-29T05:01:39.378Z,11.80
2019-01-29T05:04:05.837Z,9.80
2019-01-29T05:06:32.310Z,10.00
2019-01-29T05:09:18.658Z,7.93
2019-01-29T05:12:05.079Z,9.57
2019-01-29T05:14:44.572Z,10.00
2019-01-29T05:17:30.804Z,7.17
2019-01-29T05:19:57.458Z,9.13
2019-01-29T05:22:43.730Z,9.47
2019-01-29T05:25:23.933Z,10.50
2019-01-29T05:27:50.486Z,9.93
2019-01-29T05:30:36.760Z,9.87
2019-01-29T05:33:18.189Z,11.87
2019-01-29T05:36:04.459Z,9.63
2019-01-29T05:38:44.196Z,11.30
2019-01-29T05:41:10.606Z,8.80
2019-01-29T05:43:37.107Z,10.37
2019-01-29T05:46:25.229Z,6.40
2019-01-29T05:48:51.789Z,10.50
2019-01-29T05:51:38.085Z,9.23
2019-01-29T05:54:04.573Z,8.03
2019-01-29T05:56:50.991Z,10.00
2019-01-29T05:59:30.583Z,6.03
2019-01-29T06:02:16.970Z,8.27
2019-01-29T06:04:57.040Z,7.87
2019-01-29T06:07:43.424Z,7.97
2019-01-29T06:10:23.397Z,6.47
2019-01-29T06:13:11.943Z,7.97
2019-01-29T06:18:29.623Z,6.70
2019-01-29T06:21:18.063Z,7.57
2019-01-29T06:23:44.695Z,8.43
2019-01-29T06:26:30.979Z,6.70
2019-01-29T06:29:17.230Z,6.40
2019-01-29T06:31:57.412Z,9.83
2019-01-29T06:34:24.009Z,6.97
2019-01-29T06:37:10.267Z,9.00
2019-01-29T06:39:50.659Z,9.17
2019-01-29T06:42:58.761Z,8.60
2019-01-29T06:45:38.650Z,7.67
2019-01-29T06:48:05.250Z,11.10
2019-01-29T06:50:31.874Z,7.50
2019-01-29T06:53:18.231Z,9.83
2019-01-29T06:55:58.368Z,9.03
2019-01-29T07:01:38.866Z,9.90
2019-01-29T07:04:05.419Z,8.60
2019-01-29T07:06:44.901Z,8.87
2019-01-29T07:09:31.313Z,8.30
2019-01-29T07:12:11.004Z,9.67
2019-01-29T07:14:57.295Z,7.40
2019-01-29T07:20:44.304Z,8.10
2019-01-29T07:23:30.910Z,7.10
2019-01-29T07:26:10.405Z,8.77
2019-01-29T07:28:56.734Z,10.90
2019-01-29T07:31:36.398Z,11.20
2019-01-29T07:34:22.754Z,11.57
2019-01-29T07:37:02.436Z,6.73
2019-01-29T07:39:48.703Z,7.57
2019-01-29T07:42:28.290Z,11.93
2019-01-29T07:45:14.674Z,5.97
2019-01-29T07:47:41.535Z,7.17
2019-01-29T07:50:27.805Z,9.33
2019-01-29T07:53:09.966Z,7.43
2019-01-29T07:55:36.438Z,5.47
2019-01-29T07:58:22.787Z,17.30
2019-01-29T08:01:02.650Z,8.50
2019-01-29T08:03:48.960Z,8.10
2019-01-29T08:06:15.566Z,12.30
2019-01-29T08:11:43.095Z,11.00
2019-01-29T08:14:51.098Z,7.67
2019-01-29T08:17:17.712Z,10.23
2019-01-29T08:19:44.197Z,8.67
2019-01-29T08:22:10.721Z,8.63
2019-01-29T08:25:01.866Z,11.57
2019-01-29T08:27:37.966Z,6.23
2019-01-29T08:30:26.046Z,7.37
2019-01-29T08:33:14.707Z,5.00
2019-01-29T08:35:54.430Z,6.80
2019-01-29T08:38:40.816Z,6.27
2019-01-29T08:41:20.367Z,6.50
2019-01-29T08:44:06.978Z,7.20
2019-01-29T08:46:48.287Z,12.57
2019-01-29T08:49:35.076Z,5.97
2019-01-29T08:52:15.242Z,5.83
2019-01-29T08:55:10.291Z,6.93
2019-01-29T08:57:44.707Z,5.67
2019-01-29T09:00:52.917Z,7.07
2019-01-29T09:03:33.299Z,6.37
2019-01-29T09:06:13.040Z,9.20
2019-01-29T09:08:59.284Z,8.67
2019-01-29T09:11:39.129Z,7.20
2019-01-29T09:14:25.361Z,6.47
2019-01-29T09:17:05.178Z,5.37
2019-01-29T09:19:31.575Z,8.33
2019-01-29T09:22:17.938Z,7.37
2019-01-29T09:24:44.784Z,9.50
2019-01-29T09:27:31.043Z,7.80
2019-01-29T09:29:57.526Z,6.33
2019-01-29T09:32:24.129Z,10.87
2019-01-29T09:35:10.516Z,7.90
2019-01-29T09:37:56.750Z,5.33
2019-01-29T09:40:37.231Z,7.30
2019-01-29T09:43:23.620Z,10.17
2019-01-29T09:46:09.993Z,4.43
2019-01-29T09:48:49.821Z,5.80
2019-01-29T09:51:16.425Z,6.77
2019-01-29T09:54:03.646Z,4.93
2019-01-29T09:56:30.054Z,9.93
2019-01-29T09:59:16.448Z,6.60
2019-01-29T10:02:02.935Z,6.20
2019-01-29T10:04:43.140Z,8.40
2019-01-29T10:07:09.746Z,9.50
2019-01-29T10:09:56.022Z,7.77
2019-01-29T10:12:35.861Z,7.20
2019-01-29T10:15:23.920Z,14.27
2019-01-29T10:18:03.857Z,12.93
2019-01-29T10:20:50.143Z,14.10
2019-01-29T10:23:30.926Z,19.37
2019-01-29T10:25:57.563Z,17.33
2019-01-29T10:28:23.977Z,16.63
2019-01-29T10:30:50.550Z,23.97
2019-01-29T10:33:36.879Z,19.80
2019-01-29T10:36:16.826Z,23.80
2019-01-29T10:39:24.737Z,24.97
2019-01-29T10:42:06.007Z,25.87
2019-01-29T10:44:52.249Z,24.57
2019-01-29T10:47:32.097Z,26.43
2019-01-29T10:50:19.524Z,25.27
2019-01-29T10:52:59.262Z,21.87
2019-01-29T10:55:47.468Z,24.63
2019-01-29T10:58:27.284Z,20.27
2019-01-29T11:01:13.643Z,25.43
2019-01-29T11:03:53.274Z,30.80
2019-01-29T11:06:33.583Z,26.77
2019-01-29T11:08:59.929Z,25.73
2019-01-29T11:11:46.295Z,23.03
2019-01-29T11:14:32.515Z,24.63
2019-01-29T11:17:12.554Z,25.80
2019-01-29T11:19:58.968Z,25.27
2019-01-29T11:22:38.801Z,25.87
2019-01-29T11:25:26.941Z,25.43
2019-01-29T11:28:07.264Z,23.37
2019-01-29T11:30:53.478Z,30.30
2019-01-29T11:33:39.831Z,26.33
2019-01-29T11:36:20.391Z,31.03
2019-01-29T11:39:07.003Z,28.40
2019-01-29T11:41:50.040Z,25.17
2019-01-29T11:44:36.280Z,27.83
2019-01-29T11:47:16.781Z,24.77
2019-01-29T11:49:43.287Z,25.03
2019-01-29T11:52:11.166Z,25.43
2019-01-29T11:54:51.357Z,25.47
2019-01-29T11:57:37.572Z,22.17
2019-01-29T12:00:21.043Z,25.57
2019-01-29T12:02:47.619Z,23.80
2019-01-29T12:05:34.017Z,24.13
2019-01-29T12:08:00.494Z,28.47
2019-01-29T12:10:46.742Z,24.13
2019-01-29T12:13:26.650Z,24.30
2019-01-29T12:16:12.885Z,24.10
2019-01-29T12:18:59.124Z,25.93
2019-01-29T12:21:45.475Z,23.67
2019-01-29T12:24:25.627Z,25.27
2019-01-29T12:26:52.130Z,22.50
2019-01-29T12:29:38.509Z,25.17
2019-01-29T12:32:18.691Z,25.97
2019-01-29T12:35:06.042Z,25.80
2019-01-29T12:37:46.285Z,24.40
2019-01-29T12:40:32.512Z,23.20
2019-01-29T12:43:12.764Z,23.07
2019-01-29T12:45:59.119Z,21.90
2019-01-29T12:48:25.643Z,23.93
2019-01-29T12:54:19.545Z,25.47
2019-01-29T12:56:59.132Z,21.80
2019-01-29T12:59:45.467Z,26.10
2019-01-29T13:02:24.980Z,18.60
2019-01-29T13:05:12.188Z,22.67
2019-01-29T13:07:52.004Z,22.67
2019-01-29T13:10:53.770Z,19.47
2019-01-29T13:13:40.137Z,17.67
2019-01-29T13:16:22.944Z,19.83
2019-01-29T13:18:49.448Z,19.40
2019-01-29T13:21:35.696Z,17.00
2019-01-29T13:24:02.211Z,19.60
2019-01-29T13:26:48.470Z,17.83
2019-01-29T13:29:14.951Z,20.10
2019-01-29T13:32:01.089Z,17.27
2019-01-29T13:34:47.336Z,14.27
2019-01-29T13:37:13.964Z,17.93
2019-01-29T13:40:02.147Z,17.77
2019-01-29T13:42:42.047Z,18.90
2019-01-29T13:45:43.645Z,20.70
2019-01-29T13:48:23.245Z,21.03
2019-01-29T13:53:53.392Z,16.17
2019-01-29T13:56:39.628Z,16.80
2019-01-29T13:59:19.271Z,29.07
2019-01-29T14:02:05.613Z,34.03
2019-01-29T14:04:45.161Z,16.07
2019-01-29T14:07:25.473Z,17.70
2019-01-29T14:09:51.978Z,16.00
2019-01-29T14:12:38.226Z,14.10
2019-01-29T14:15:20.809Z,18.07
2019-01-29T14:17:47.448Z,12.60
2019-01-29T14:20:33.679Z,22.60
2019-01-29T14:23:00.166Z,17.77
2019-01-29T14:25:46.562Z,24.03
2019-01-29T14:28:32.778Z,13.23
2019-01-29T14:31:12.881Z,13.30
2019-01-29T14:33:39.366Z,12.60
2019-01-29T14:36:05.838Z,13.27
2019-01-29T14:39:11.939Z,12.77
2019-01-29T14:41:51.975Z,14.73
2019-01-29T14:44:38.230Z,13.43
2019-01-29T14:47:24.471Z,18.23
2019-01-29T14:49:50.997Z,13.10
2019-01-29T14:52:49.685Z,15.50
2019-01-29T14:58:12.890Z,16.17
2019-01-29T15:00:59.274Z,11.80
2019-01-29T15:03:45.630Z,8.63
2019-01-29T15:06:32.254Z,8.13
2019-01-29T15:09:13.248Z,8.57
2019-01-29T15:11:53.112Z,7.43
2019-01-29T15:14:39.248Z,7.37
2019-01-29T15:17:40.304Z,5.00
2019-01-29T15:20:28.465Z,4.97
2019-01-29T15:23:07.873Z,11.70
2019-01-29T15:25:54.130Z,6.70
2019-01-29T15:28:20.779Z,6.23
2019-01-29T15:31:28.718Z,6.33
2019-01-29T15:34:15.074Z,6.23
2019-01-29T15:36:55.319Z,4.33
2019-01-29T15:39:21.922Z,4.63
2019-01-29T15:41:48.402Z,6.73
2019-01-29T15:44:34.687Z,5.57
2019-01-29T15:47:21.059Z,6.87
2019-01-29T15:50:01.595Z,6.70
2019-01-29T15:52:48.919Z,6.97
2019-01-29T15:55:29.356Z,7.47
2019-01-29T15:58:31.172Z,6.53
2019-01-29T16:01:10.622Z,11.20
2019-01-29T16:07:23.455Z,6.33
2019-01-29T16:10:11.523Z,9.77
2019-01-29T16:12:37.990Z,6.53
2019-01-29T16:15:25.107Z,6.03
2019-01-29T16:18:12.043Z,6.40
2019-01-29T16:20:52.071Z,6.13
2019-01-29T16:23:38.310Z,10.20
2019-01-29T16:26:18.010Z,8.67
2019-01-29T16:29:04.266Z,5.00
2019-01-29T16:31:44.701Z,5.77
2019-01-29T16:34:11.197Z,9.47
2019-01-29T16:36:37.730Z,7.80
2019-01-29T16:39:24.088Z,7.50
2019-01-29T16:42:10.458Z,8.70
2019-01-29T16:44:50.760Z,5.20
2019-01-29T16:47:17.218Z,7.13
2019-01-29T16:49:43.741Z,7.63
2019-01-29T16:52:29.965Z,8.20
2019-01-29T16:54:56.590Z,11.47
2019-01-29T16:57:31.280Z,12.60
2019-01-29T16:59:51.487Z,9.20
2019-01-29T17:02:38.013Z,9.57
2019-01-29T17:05:17.890Z,9.50
2019-01-29T17:07:44.486Z,12.50
2019-01-29T17:13:19.079Z,9.83
2019-01-29T17:15:45.702Z,6.73
2019-01-29T17:18:31.944Z,7.53
2019-01-29T17:21:18.288Z,5.93
2019-01-29T17:23:44.894Z,8.53
2019-01-29T17:26:11.468Z,11.87
2019-01-29T17:28:57.853Z,9.33
2019-01-29T17:31:24.470Z,8.27
2019-01-29T17:34:10.828Z,7.47
2019-01-29T17:36:37.353Z,9.30
2019-01-29T17:39:23.564Z,6.63
2019-01-29T17:42:09.826Z,9.67
2019-01-29T17:44:36.414Z,7.13
2019-01-29T17:47:22.684Z,5.60
2019-01-29T17:50:04.800Z,11.70
2019-01-29T17:52:51.271Z,8.47
2019-01-29T17:55:38.099Z,10.73
2019-01-29T17:58:05.288Z,8.27
2019-01-29T18:03:32.490Z,9.93
2019-01-29T18:06:12.483Z,9.57
2019-01-29T18:08:58.816Z,8.37
2019-01-29T18:11:25.362Z,11.43
2019-01-29T18:14:33.289Z,9.43
2019-01-29T18:16:59.780Z,10.97
2019-01-29T18:19:26.263Z,6.77
2019-01-29T18:22:12.494Z,9.97
2019-01-29T18:24:39.028Z,10.07
2019-01-29T18:27:25.331Z,11.57
2019-01-29T18:29:51.854Z,7.00
2019-01-29T18:32:18.416Z,9.67
2019-01-29T18:38:05.469Z,9.83
2019-01-29T18:43:53.114Z,10.60
2019-01-29T18:46:19.789Z,11.07
2019-01-29T18:49:06.020Z,11.97
2019-01-29T18:51:45.958Z,14.33
2019-01-29T18:54:32.325Z,11.67
2019-01-29T18:57:12.688Z,12.97
2019-01-29T18:59:59.056Z,9.07
2019-01-29T19:02:38.592Z,10.77
2019-01-29T19:05:25.129Z,14.20
2019-01-29T19:08:06.892Z,13.10
2019-01-29T19:10:33.569Z,15.83
2019-01-29T19:13:00.207Z,12.90
2019-01-29T19:15:46.350Z,9.93
2019-01-29T19:18:12.862Z,12.83
2019-01-29T19:20:59.131Z,10.67
2019-01-29T19:23:45.530Z,12.47
2019-01-29T19:26:25.407Z,13.90
2019-01-29T19:29:11.653Z,14.27
2019-01-29T19:31:38.131Z,14.80
2019-01-29T19:34:04.653Z,11.50
2019-01-29T19:36:50.895Z,13.63
2019-01-29T19:39:37.267Z,11.20
2019-01-29T19:42:27.092Z,19.20
2019-01-29T19:45:20.736Z,10.27
2019-01-29T19:48:00.252Z,12.57
2019-01-29T19:50:59.867Z,10.30
2019-01-29T19:53:46.242Z,11.37
2019-01-29T19:56:12.735Z,11.57
2019-01-29T19:58:39.223Z,9.83
2019-01-29T20:01:25.403Z,11.73
2019-01-29T20:04:11.693Z,10.40
2019-01-29T20:06:52.098Z,14.50
2019-01-29T20:09:18.576Z,11.17
2019-01-29T20:12:04.919Z,8.80
2019-01-29T20:14:31.531Z,7.67
2019-01-29T20:16:58.001Z,14.57
2019-01-29T20:19:44.376Z,9.57
2019-01-29T20:22:10.858Z,11.33
2019-01-29T20:24:57.273Z,13.60
2019-01-29T20:27:23.864Z,10.30
2019-01-29T20:29:50.258Z,11.13
2019-01-29T20:32:53.140Z,9.20
2019-01-29T20:35:04.963Z,8.83
2019-01-29T20:37:51.232Z,10.63
2019-01-29T20:40:31.523Z,14.17
2019-01-29T20:43:17.871Z,12.27
2019-01-29T20:45:44.430Z,8.73
2019-01-29T20:48:10.819Z,9.83
2019-01-29T20:50:37.313Z,9.63
2019-01-29T20:53:03.935Z,10.93
2019-01-29T20:55:50.274Z,11.47
2019-01-29T20:58:36.585Z,19.33
2019-01-29T21:01:24.758Z,9.17
2019-01-29T21:04:11.203Z,10.93
2019-01-29T21:06:51.388Z,12.60
2019-01-29T21:09:17.903Z,9.83
2019-01-29T21:12:04.234Z,10.13
2019-01-29T21:14:44.056Z,10.43
2019-01-29T21:20:26.065Z,8.63
2019-01-29T21:22:52.631Z,9.50
2019-01-29T21:25:39.039Z,13.87
2019-01-29T21:28:05.663Z,9.80
2019-01-29T21:30:52.183Z,10.03
2019-01-29T21:33:38.444Z,10.10
2019-01-29T21:36:18.657Z,8.47
2019-01-29T21:42:07.170Z,6.63
2019-01-29T21:44:53.421Z,8.47
2019-01-29T21:47:40.450Z,8.33
2019-01-29T21:50:42.136Z,8.73
2019-01-29T21:56:08.212Z,8.30
2019-01-29T21:59:13.460Z,7.77
2019-01-29T22:01:50.114Z,10.70
2019-01-29T22:04:36.509Z,9.77
2019-01-29T22:07:03.316Z,6.93
2019-01-29T22:09:49.502Z,11.97
2019-01-29T22:12:28.995Z,10.07
2019-01-29T22:15:16.039Z,6.77
2019-01-29T22:18:23.912Z,9.50
2019-01-29T22:21:04.235Z,7.10
2019-01-29T22:23:30.717Z,6.43
2019-01-29T22:26:16.993Z,8.90
2019-01-29T22:28:56.681Z,5.97
2019-01-29T22:31:23.186Z,6.13
2019-01-29T22:34:09.434Z,9.23
2019-01-29T22:36:49.412Z,7.03
2019-01-29T22:39:35.901Z,5.70
2019-01-29T22:42:13.677Z,7.27
2019-01-29T22:44:40.305Z,7.10
2019-01-29T22:47:26.663Z,7.43
2019-01-29T22:50:08.635Z,5.40
2019-01-29T22:52:54.896Z,5.67
2019-01-29T22:55:34.927Z,6.90
2019-01-29T22:58:21.153Z,5.87
2019-01-29T23:04:05.259Z,6.70
2019-01-29T23:06:53.607Z,8.27
2019-01-29T23:09:33.504Z,5.83
2019-01-29T23:11:59.908Z,6.77
2019-01-29T23:14:46.330Z,7.72
2019-01-29T23:17:26.102Z,5.70
2019-01-29T23:23:12.961Z,5.77
2019-01-29T23:25:39.475Z,5.60
2019-01-29T23:28:05.947Z,7.37
2019-01-29T23:30:32.534Z,6.90
2019-01-29T23:33:19.120Z,4.77
2019-01-29T23:36:05.503Z,7.43
2019-01-29T23:38:47.458Z,5.40
2019-01-29T23:41:27.464Z,5.93
2019-01-29T23:43:54.038Z,4.73
2019-01-29T23:46:40.375Z,6.40
2019-01-29T23:49:20.321Z,5.07
2019-01-29T23:52:06.664Z,17.90
2019-01-29T23:54:46.347Z,5.93
2019-01-29T23:57:32.975Z,4.53
